Time,TemperatureF,DewpointF,PressureIn,WindDirection,WindDirectionDegrees,WindSpeedMPH,WindSpeedGustMPH,Humidity,HourlyPrecipIn,Conditions,Clouds,dailyrainin,SolarRadiationWatts/m^2,SoftwareType,DateUTC
2013-03-25 00:03:00,26.0,22.0,-100.00,North,9,1.0,3.0,84,0.00,,,0.00,0.000000,,2013-03-25 04:03:00,
2013-03-25 00:33:00,25.0,22.0,-100.00,WNW,295,0.0,2.0,87,0.00,,,0.00,0.000000,,2013-03-25 04:33:00,
2013-03-25 00:43:00,25.0,22.0,-100.00,WNW,295,0.0,2.0,87,0.00,,,0.00,0.000000,,2013-03-25 04:43:00,
2013-03-25 00:52:00,25.0,22.0,-100.00,WNW,295,0.0,2.0,87,0.00,,,0.00,0.000000,,2013-03-25 04:52:00,
2013-03-25 01:03:00,25.0,22.0,-100.00,WNW,295,0.0,2.0,87,0.00,,,0.00,0.000000,,2013-03-25 05:03:00,
2013-03-25 01:33:00,24.0,21.0,-100.00,SSW,202,1.0,3.0,89,0.00,,,0.00,0.000000,,2013-03-25 05:33:00,
2013-03-25 01:42:00,24.0,21.0,-100.00,SSW,202,1.0,3.0,89,0.00,,,0.00,0.000000,,2013-03-25 05:42:00,
2013-03-25 01:53:00,24.0,21.0,-100.00,SSW,202,1.0,3.0,89,0.00,,,0.00,0.000000,,2013-03-25 05:53:00,
2013-03-25 02:02:00,24.0,21.0,-100.00,SSW,202,1.0,3.0,89,0.00,,,0.00,0.000000,,2013-03-25 06:02:00,
2013-03-25 02:33:00,23.0,21.0,-100.00,West,278,1.0,3.0,91,0.00,,,0.00,0.000000,,2013-03-25 06:33:00,
2013-03-25 02:42:00,23.0,21.0,-100.00,West,278,1.0,3.0,91,0.00,,,0.00,0.000000,,2013-03-25 06:42:00,
2013-03-25 02:53:00,23.0,21.0,-100.00,West,278,1.0,3.0,91,0.00,,,0.00,0.000000,,2013-03-25 06:53:00,
2013-03-25 03:02:00,23.0,21.0,-100.00,West,278,1.0,3.0,91,0.00,,,0.00,0.000000,,2013-03-25 07:02:00,
2013-03-25 03:32:00,24.0,21.0,-100.00,WSW,258,1.0,4.0,89,0.00,,,0.00,0.000000,,2013-03-25 07:32:00,
2013-03-25 03:42:00,24.0,21.0,-100.00,WSW,258,1.0,4.0,89,0.00,,,0.00,0.000000,,2013-03-25 07:42:00,
2013-03-25 03:53:00,24.0,21.0,-100.00,WSW,258,1.0,4.0,89,0.00,,,0.00,0.000000,,2013-03-25 07:53:00,
2013-03-25 04:03:00,24.0,21.0,-100.00,WSW,258,1.0,4.0,89,0.00,,,0.00,0.000000,,2013-03-25 08:03:00,
2013-03-25 04:32:00,21.0,19.0,-100.00,WSW,253,1.0,3.0,90,0.00,,,0.00,0.000000,,2013-03-25 08:32:00,
2013-03-25 04:43:00,21.0,19.0,-100.00,WSW,253,1.0,3.0,90,0.00,,,0.00,0.000000,,2013-03-25 08:43:00,
2013-03-25 04:52:00,21.0,19.0,-100.00,WSW,253,1.0,3.0,90,0.00,,,0.00,0.000000,,2013-03-25 08:52:00,
2013-03-25 05:02:00,21.0,19.0,-100.00,WSW,253,1.0,3.0,90,0.00,,,0.00,0.000000,,2013-03-25 09:02:00,
2013-03-25 05:33:00,20.0,18.0,-100.00,SSE,162,1.0,3.0,90,0.00,,,0.00,0.000000,,2013-03-25 09:33:00,
2013-03-25 05:43:00,20.0,18.0,-100.00,SSE,162,1.0,3.0,90,0.00,,,0.00,0.000000,,2013-03-25 09:43:00,
2013-03-25 05:53:00,20.0,18.0,-100.00,SSE,162,1.0,3.0,90,0.00,,,0.00,0.000000,,2013-03-25 09:53:00,
2013-03-25 06:03:00,20.0,18.0,-100.00,SSE,162,1.0,3.0,90,0.00,,,0.00,0.000000,,2013-03-25 10:03:00,
2013-03-25 06:33:00,19.0,17.0,-100.00,North,7,1.0,3.0,92,0.00,,,0.00,0.000000,,2013-03-25 10:33:00,
2013-03-25 06:43:00,19.0,17.0,-100.00,North,7,1.0,3.0,92,0.00,,,0.00,0.000000,,2013-03-25 10:43:00,
2013-03-25 06:54:00,19.0,17.0,-100.00,North,7,1.0,3.0,92,0.00,,,0.00,0.000000,,2013-03-25 10:54:00,
2013-03-25 07:03:00,19.0,17.0,-100.00,North,7,1.0,3.0,92,0.00,,,0.00,0.000000,,2013-03-25 11:03:00,
2013-03-25 07:33:00,21.0,18.0,-100.00,NE,37,2.0,3.0,89,0.00,,,0.00,5.000000,,2013-03-25 11:33:00,
2013-03-25 07:43:00,21.0,18.0,-100.00,NE,37,2.0,3.0,89,0.00,,,0.00,5.000000,,2013-03-25 11:43:00,
2013-03-25 07:53:00,21.0,18.0,-100.00,NE,37,2.0,3.0,89,0.00,,,0.00,5.000000,,2013-03-25 11:53:00,
2013-03-25 08:03:00,21.0,18.0,-100.00,NE,37,2.0,3.0,89,0.00,,,0.00,5.000000,,2013-03-25 12:03:00,
2013-03-25 08:33:00,28.0,22.0,-100.00,NNE,28,1.0,4.0,78,0.00,,,0.00,68.000000,,2013-03-25 12:33:00,
2013-03-25 08:43:00,28.0,22.0,-100.00,NNE,28,1.0,4.0,78,0.00,,,0.00,68.000000,,2013-03-25 12:43:00,
2013-03-25 08:54:00,28.0,22.0,-100.00,NNE,28,1.0,4.0,78,0.00,,,0.00,68.000000,,2013-03-25 12:54:00,
2013-03-25 09:03:00,28.0,22.0,-100.00,NNE,28,1.0,4.0,78,0.00,,,0.00,68.000000,,2013-03-25 13:03:00,
2013-03-25 09:32:00,33.0,24.0,-100.00,NE,52,0.0,3.0,69,0.00,,,0.00,124.000000,,2013-03-25 13:32:00,
2013-03-25 09:43:00,33.0,24.0,-100.00,NE,52,0.0,3.0,69,0.00,,,0.00,124.000000,,2013-03-25 13:43:00,
2013-03-25 09:53:00,33.0,24.0,-100.00,NE,52,0.0,3.0,69,0.00,,,0.00,124.000000,,2013-03-25 13:53:00,
2013-03-25 10:03:00,33.0,24.0,-100.00,NE,52,0.0,3.0,69,0.00,,,0.00,124.000000,,2013-03-25 14:03:00,
2013-03-25 10:33:00,40.0,26.0,-100.00,NE,47,2.0,4.0,57,0.00,,,0.00,259.000000,,2013-03-25 14:33:00,
2013-03-25 10:43:00,40.0,26.0,-100.00,NE,47,2.0,4.0,57,0.00,,,0.00,259.000000,,2013-03-25 14:43:00,
2013-03-25 10:53:00,40.0,26.0,-100.00,NE,47,2.0,4.0,57,0.00,,,0.00,259.000000,,2013-03-25 14:53:00,
2013-03-25 11:03:00,40.0,26.0,-100.00,NE,47,2.0,4.0,57,0.00,,,0.00,259.000000,,2013-03-25 15:03:00,
2013-03-25 11:33:00,40.0,26.0,-100.00,NE,52,4.0,7.0,57,0.00,,,0.00,276.000000,,2013-03-25 15:33:00,
2013-03-25 11:43:00,40.0,26.0,-100.00,NE,52,4.0,7.0,57,0.00,,,0.00,276.000000,,2013-03-25 15:43:00,
2013-03-25 11:54:00,40.0,26.0,-100.00,NE,52,4.0,7.0,57,0.00,,,0.00,276.000000,,2013-03-25 15:54:00,
2013-03-25 12:03:00,40.0,26.0,-100.00,NE,52,4.0,7.0,57,0.00,,,0.00,276.000000,,2013-03-25 16:03:00,
2013-03-25 12:33:00,41.0,28.0,-100.00,ENE,63,4.0,7.0,59,0.00,,,0.00,339.000000,,2013-03-25 16:33:00,
2013-03-25 12:44:00,41.0,28.0,-100.00,ENE,63,4.0,7.0,59,0.00,,,0.00,339.000000,,2013-03-25 16:44:00,
2013-03-25 12:53:00,41.0,28.0,-100.00,ENE,63,4.0,7.0,59,0.00,,,0.00,339.000000,,2013-03-25 16:53:00,
2013-03-25 13:03:00,41.0,28.0,-100.00,ENE,63,4.0,7.0,59,0.00,,,0.00,339.000000,,2013-03-25 17:03:00,
2013-03-25 13:33:00,41.0,27.0,-100.00,NE,56,5.0,11.0,56,0.00,,,0.00,293.000000,,2013-03-25 17:33:00,
2013-03-25 13:43:00,41.0,27.0,-100.00,NE,56,5.0,11.0,56,0.00,,,0.00,293.000000,,2013-03-25 17:43:00,
2013-03-25 13:53:00,41.0,27.0,-100.00,NE,56,5.0,11.0,56,0.00,,,0.00,293.000000,,2013-03-25 17:53:00,
2013-03-25 14:04:00,41.0,27.0,-100.00,NE,56,5.0,11.0,56,0.00,,,0.00,293.000000,,2013-03-25 18:04:00,
2013-03-25 14:33:00,43.0,26.0,-100.00,ENE,58,4.0,10.0,50,0.00,,,0.00,297.000000,,2013-03-25 18:33:00,
2013-03-25 14:43:00,43.0,26.0,-100.00,ENE,58,4.0,10.0,50,0.00,,,0.00,297.000000,,2013-03-25 18:43:00,
2013-03-25 14:53:00,43.0,26.0,-100.00,ENE,58,4.0,10.0,50,0.00,,,0.00,297.000000,,2013-03-25 18:53:00,
2013-03-25 15:03:00,43.0,26.0,-100.00,ENE,58,4.0,10.0,50,0.00,,,0.00,297.000000,,2013-03-25 19:03:00,
2013-03-25 15:33:00,42.0,26.0,-100.00,ENE,67,4.0,7.0,53,0.00,,,0.00,285.000000,,2013-03-25 19:33:00,
2013-03-25 15:43:00,42.0,26.0,-100.00,ENE,67,4.0,7.0,53,0.00,,,0.00,285.000000,,2013-03-25 19:43:00,
2013-03-25 15:53:00,42.0,26.0,-100.00,ENE,67,4.0,7.0,53,0.00,,,0.00,285.000000,,2013-03-25 19:53:00,
2013-03-25 16:02:00,42.0,26.0,-100.00,ENE,67,4.0,7.0,53,0.00,,,0.00,285.000000,,2013-03-25 20:02:00,
2013-03-25 16:32:00,39.0,25.0,-100.00,NE,56,4.0,8.0,56,0.00,,,0.00,133.000000,,2013-03-25 20:32:00,
2013-03-25 16:42:00,39.0,25.0,-100.00,NE,56,4.0,8.0,56,0.00,,,0.00,133.000000,,2013-03-25 20:42:00,
2013-03-25 16:52:00,39.0,25.0,-100.00,NE,56,4.0,8.0,56,0.00,,,0.00,133.000000,,2013-03-25 20:52:00,
2013-03-25 17:03:00,39.0,25.0,-100.00,NE,56,4.0,8.0,56,0.00,,,0.00,133.000000,,2013-03-25 21:03:00,
2013-03-25 17:33:00,40.0,26.0,-100.00,NE,53,4.0,8.0,56,0.00,,,0.00,90.000000,,2013-03-25 21:33:00,
2013-03-25 17:43:00,40.0,26.0,-100.00,NE,53,4.0,8.0,56,0.00,,,0.00,90.000000,,2013-03-25 21:43:00,
2013-03-25 17:52:00,40.0,26.0,-100.00,NE,53,4.0,8.0,56,0.00,,,0.00,90.000000,,2013-03-25 21:52:00,
2013-03-25 18:03:00,40.0,26.0,-100.00,NE,53,4.0,8.0,56,0.00,,,0.00,90.000000,,2013-03-25 22:03:00,
2013-03-25 18:33:00,39.0,26.0,-100.00,NE,51,4.0,9.0,59,0.00,,,0.00,51.000000,,2013-03-25 22:33:00,
2013-03-25 18:43:00,39.0,26.0,-100.00,NE,51,4.0,9.0,59,0.00,,,0.00,51.000000,,2013-03-25 22:43:00,
2013-03-25 18:52:00,39.0,26.0,-100.00,NE,51,4.0,9.0,59,0.00,,,0.00,51.000000,,2013-03-25 22:52:00,
2013-03-25 19:03:00,39.0,26.0,-100.00,NE,51,4.0,9.0,59,0.00,,,0.00,51.000000,,2013-03-25 23:03:00,
2013-03-25 19:33:00,36.0,25.0,-100.00,North,355,1.0,5.0,65,0.00,,,0.00,14.000000,,2013-03-25 23:33:00,
2013-03-25 19:43:00,36.0,25.0,-100.00,North,355,1.0,5.0,65,0.00,,,0.00,14.000000,,2013-03-25 23:43:00,
2013-03-25 19:53:00,36.0,25.0,-100.00,North,355,1.0,5.0,65,0.00,,,0.00,14.000000,,2013-03-25 23:53:00,
2013-03-25 20:02:00,36.0,25.0,-100.00,North,355,1.0,5.0,65,0.00,,,0.00,14.000000,,2013-03-26 00:02:00,
2013-03-25 21:33:00,35.0,27.0,-100.00,NNE,19,2.0,7.0,72,-99.99,,,0.00,0.000000,,2013-03-26 01:33:00,
2013-03-25 21:42:00,35.0,27.0,-100.00,NNE,19,2.0,7.0,72,-99.99,,,0.00,0.000000,,2013-03-26 01:42:00,
2013-03-25 21:53:00,35.0,27.0,-100.00,NNE,19,2.0,7.0,72,-99.99,,,0.00,0.000000,,2013-03-26 01:53:00,
2013-03-25 22:02:00,35.0,27.0,-100.00,NNE,19,2.0,7.0,72,-99.99,,,0.00,0.000000,,2013-03-26 02:02:00,
2013-03-25 22:32:00,38.0,25.0,-100.00,NE,50,4.0,8.0,59,0.00,,,0.00,0.000000,,2013-03-26 02:32:00,
2013-03-25 22:43:00,38.0,25.0,-100.00,NE,50,4.0,8.0,59,0.00,,,0.00,0.000000,,2013-03-26 02:43:00,
2013-03-25 22:52:00,38.0,25.0,-100.00,NE,50,4.0,8.0,59,0.00,,,0.00,0.000000,,2013-03-26 02:52:00,
2013-03-25 23:02:00,38.0,25.0,-100.00,NE,50,4.0,8.0,59,0.00,,,0.00,0.000000,,2013-03-26 03:02:00,
2013-03-25 23:34:00,36.0,26.0,-100.00,NE,45,6.0,12.0,67,0.00,,,0.00,0.000000,,2013-03-26 03:34:00,
2013-03-25 23:43:00,36.0,26.0,-100.00,NE,45,6.0,12.0,67,0.00,,,0.00,0.000000,,2013-03-26 03:43:00,
2013-03-25 23:53:00,36.0,26.0,-100.00,NE,45,6.0,12.0,67,0.00,,,0.00,0.000000,,2013-03-26 03:53:00,